sensor_id;sensor_type;location;lat;lon;timestamp;P1;durP1;ratioP1;P2;durP2;ratioP2
78820;SDS011;68171;13.882;99.692;2023-08-31T00:00:25;14.85;;;6.22;;
78820;SDS011;68171;13.882;99.692;2023-08-31T00:01:31;15.27;;;6.05;;
78820;SDS011;68171;13.882;99.692;2023-08-31T00:02:38;14.80;;;5.90;;
78820;SDS011;68171;13.882;99.692;2023-08-31T00:03:46;11.30;;;5.73;;
78820;SDS011;68171;13.882;99.692;2023-08-31T00:04:52;12.35;;;6.13;;
78820;SDS011;68171;13.882;99.692;2023-08-31T00:05:57;26.23;;;14.82;;
78820;SDS011;68171;13.882;99.692;2023-08-31T00:07:12;23.95;;;12.30;;
78820;SDS011;68171;13.882;99.692;2023-08-31T00:08:17;13.30;;;6.15;;
78820;SDS011;68171;13.882;99.692;2023-08-31T00:09:25;18.55;;;8.32;;
78820;SDS011;68171;13.882;99.692;2023-08-31T00:10:30;19.10;;;9.35;;
78820;SDS011;68171;13.882;99.692;2023-08-31T00:11:37;14.90;;;6.32;;
78820;SDS011;68171;13.882;99.692;2023-08-31T00:12:42;13.70;;;6.68;;
78820;SDS011;68171;13.882;99.692;2023-08-31T00:13:49;32.55;;;15.35;;
78820;SDS011;68171;13.882;99.692;2023-08-31T00:14:54;28.17;;;12.80;;
78820;SDS011;68171;13.882;99.692;2023-08-31T00:16:01;27.73;;;12.30;;
78820;SDS011;68171;13.882;99.692;2023-08-31T00:17:06;20.85;;;9.60;;
78820;SDS011;68171;13.882;99.692;2023-08-31T00:18:12;15.45;;;7.10;;
78820;SDS011;68171;13.882;99.692;2023-08-31T00:19:21;15.48;;;6.75;;
78820;SDS011;68171;13.882;99.692;2023-08-31T00:20:26;30.67;;;12.23;;
78820;SDS011;68171;13.882;99.692;2023-08-31T00:21:33;19.73;;;8.35;;
78820;SDS011;68171;13.882;99.692;2023-08-31T00:22:39;16.17;;;7.40;;
78820;SDS011;68171;13.882;99.692;2023-08-31T00:23:45;26.85;;;11.02;;
78820;SDS011;68171;13.882;99.692;2023-08-31T00:24:51;20.50;;;8.68;;
78820;SDS011;68171;13.882;99.692;2023-08-31T00:25:57;15.33;;;6.80;;
78820;SDS011;68171;13.882;99.692;2023-08-31T00:27:03;12.88;;;6.45;;
78820;SDS011;68171;13.882;99.692;2023-08-31T00:28:10;15.90;;;7.10;;
78820;SDS011;68171;13.882;99.692;2023-08-31T00:29:15;16.90;;;6.97;;
78820;SDS011;68171;13.882;99.692;2023-08-31T00:30:22;27.38;;;12.95;;
78820;SDS011;68171;13.882;99.692;2023-08-31T00:31:34;29.85;;;13.55;;
78820;SDS011;68171;13.882;99.692;2023-08-31T00:32:41;23.20;;;10.00;;
78820;SDS011;68171;13.882;99.692;2023-08-31T00:33:46;20.75;;;9.65;;
78820;SDS011;68171;13.882;99.692;2023-08-31T00:34:55;20.50;;;10.15;;
78820;SDS011;68171;13.882;99.692;2023-08-31T00:36:01;22.60;;;9.60;;
78820;SDS011;68171;13.882;99.692;2023-08-31T00:37:07;22.30;;;9.93;;
78820;SDS011;68171;13.882;99.692;2023-08-31T00:38:12;16.70;;;6.95;;
78820;SDS011;68171;13.882;99.692;2023-08-31T00:39:19;14.02;;;6.75;;
78820;SDS011;68171;13.882;99.692;2023-08-31T00:40:25;12.57;;;5.78;;
78820;SDS011;68171;13.882;99.692;2023-08-31T00:41:40;10.35;;;5.60;;
78820;SDS011;68171;13.882;99.692;2023-08-31T00:42:45;13.95;;;5.88;;
78820;SDS011;68171;13.882;99.692;2023-08-31T00:43:52;13.23;;;5.90;;
78820;SDS011;68171;13.882;99.692;2023-08-31T00:44:57;11.68;;;6.10;;
78820;SDS011;68171;13.882;99.692;2023-08-31T00:46:04;13.10;;;6.85;;
78820;SDS011;68171;13.882;99.692;2023-08-31T00:47:10;14.30;;;5.68;;
78820;SDS011;68171;13.882;99.692;2023-08-31T00:48:15;12.43;;;5.30;;
78820;SDS011;68171;13.882;99.692;2023-08-31T00:49:22;13.38;;;5.85;;
78820;SDS011;68171;13.882;99.692;2023-08-31T00:50:29;16.25;;;6.15;;
78820;SDS011;68171;13.882;99.692;2023-08-31T00:51:35;11.23;;;5.90;;
78820;SDS011;68171;13.882;99.692;2023-08-31T00:52:41;14.13;;;5.63;;
78820;SDS011;68171;13.882;99.692;2023-08-31T00:53:48;12.70;;;5.30;;
78820;SDS011;68171;13.882;99.692;2023-08-31T00:54:56;16.88;;;5.57;;
78820;SDS011;68171;13.882;99.692;2023-08-31T00:56:03;12.35;;;5.20;;
78820;SDS011;68171;13.882;99.692;2023-08-31T00:57:09;12.52;;;5.38;;
78820;SDS011;68171;13.882;99.692;2023-08-31T00:58:16;11.80;;;5.20;;
78820;SDS011;68171;13.882;99.692;2023-08-31T00:59:21;11.20;;;5.40;;
78820;SDS011;68171;13.882;99.692;2023-08-31T01:00:30;11.38;;;4.80;;
78820;SDS011;68171;13.882;99.692;2023-08-31T01:01:50;11.30;;;5.15;;
78820;SDS011;68171;13.882;99.692;2023-08-31T01:03:02;14.63;;;5.35;;
78820;SDS011;68171;13.882;99.692;2023-08-31T01:04:16;10.30;;;4.95;;
78820;SDS011;68171;13.882;99.692;2023-08-31T01:05:33;12.48;;;4.93;;
78820;SDS011;68171;13.882;99.692;2023-08-31T01:06:50;13.77;;;5.38;;
78820;SDS011;68171;13.882;99.692;2023-08-31T01:08:04;10.07;;;5.10;;
78820;SDS011;68171;13.882;99.692;2023-08-31T01:09:19;14.00;;;5.68;;
78820;SDS011;68171;13.882;99.692;2023-08-31T01:10:36;12.57;;;5.57;;
78820;SDS011;68171;13.882;99.692;2023-08-31T01:11:51;12.57;;;5.27;;
78820;SDS011;68171;13.882;99.692;2023-08-31T01:13:04;11.45;;;5.18;;
78820;SDS011;68171;13.882;99.692;2023-08-31T01:14:16;13.10;;;4.95;;
78820;SDS011;68171;13.882;99.692;2023-08-31T01:15:23;12.23;;;5.35;;
78820;SDS011;68171;13.882;99.692;2023-08-31T01:16:29;12.10;;;5.47;;
78820;SDS011;68171;13.882;99.692;2023-08-31T01:17:37;12.18;;;5.20;;
78820;SDS011;68171;13.882;99.692;2023-08-31T01:18:45;10.77;;;4.90;;
78820;SDS011;68171;13.882;99.692;2023-08-31T01:19:52;13.05;;;4.97;;
78820;SDS011;68171;13.882;99.692;2023-08-31T01:21:00;12.00;;;4.80;;
78820;SDS011;68171;13.882;99.692;2023-08-31T01:22:12;14.35;;;5.32;;
78820;SDS011;68171;13.882;99.692;2023-08-31T01:23:20;13.47;;;5.17;;
78820;SDS011;68171;13.882;99.692;2023-08-31T01:24:29;10.98;;;4.78;;
78820;SDS011;68171;13.882;99.692;2023-08-31T01:25:35;13.82;;;5.32;;
78820;SDS011;68171;13.882;99.692;2023-08-31T01:26:42;14.57;;;5.18;;
78820;SDS011;68171;13.882;99.692;2023-08-31T01:27:47;11.75;;;4.97;;
78820;SDS011;68171;13.882;99.692;2023-08-31T01:28:54;14.20;;;5.40;;
78820;SDS011;68171;13.882;99.692;2023-08-31T01:30:00;12.43;;;5.15;;
78820;SDS011;68171;13.882;99.692;2023-08-31T01:31:07;11.23;;;5.28;;
78820;SDS011;68171;13.882;99.692;2023-08-31T01:32:12;13.82;;;4.97;;
78820;SDS011;68171;13.882;99.692;2023-08-31T01:33:28;15.65;;;5.63;;
78820;SDS011;68171;13.882;99.692;2023-08-31T01:34:34;11.40;;;5.43;;
78820;SDS011;68171;13.882;99.692;2023-08-31T01:35:42;13.38;;;6.50;;
78820;SDS011;68171;13.882;99.692;2023-08-31T01:36:50;12.38;;;5.95;;
78820;SDS011;68171;13.882;99.692;2023-08-31T01:38:02;12.90;;;5.50;;
78820;SDS011;68171;13.882;99.692;2023-08-31T01:39:10;14.15;;;5.70;;
78820;SDS011;68171;13.882;99.692;2023-08-31T01:40:22;15.27;;;6.00;;
78820;SDS011;68171;13.882;99.692;2023-08-31T01:41:30;13.02;;;5.47;;
78820;SDS011;68171;13.882;99.692;2023-08-31T01:42:39;11.95;;;5.90;;
78820;SDS011;68171;13.882;99.692;2023-08-31T01:43:45;13.48;;;5.30;;
78820;SDS011;68171;13.882;99.692;2023-08-31T01:44:53;12.48;;;5.18;;
78820;SDS011;68171;13.882;99.692;2023-08-31T01:46:00;13.33;;;5.20;;
78820;SDS011;68171;13.882;99.692;2023-08-31T01:47:07;11.68;;;5.50;;
78820;SDS011;68171;13.882;99.692;2023-08-31T01:48:13;12.75;;;5.10;;
78820;SDS011;68171;13.882;99.692;2023-08-31T01:49:20;12.05;;;5.30;;
78820;SDS011;68171;13.882;99.692;2023-08-31T01:50:25;12.77;;;5.75;;
78820;SDS011;68171;13.882;99.692;2023-08-31T01:51:32;14.90;;;5.65;;
78820;SDS011;68171;13.882;99.692;2023-08-31T01:52:37;14.60;;;5.72;;
78820;SDS011;68171;13.882;99.692;2023-08-31T01:53:44;11.05;;;5.85;;
78820;SDS011;68171;13.882;99.692;2023-08-31T01:54:49;14.45;;;5.68;;
78820;SDS011;68171;13.882;99.692;2023-08-31T01:55:57;13.55;;;5.90;;
78820;SDS011;68171;13.882;99.692;2023-08-31T01:57:02;12.50;;;5.63;;
78820;SDS011;68171;13.882;99.692;2023-08-31T01:58:09;13.82;;;5.72;;
78820;SDS011;68171;13.882;99.692;2023-08-31T01:59:15;15.60;;;5.68;;
78820;SDS011;68171;13.882;99.692;2023-08-31T02:00:21;10.60;;;5.50;;
78820;SDS011;68171;13.882;99.692;2023-08-31T02:01:26;11.43;;;5.20;;
78820;SDS011;68171;13.882;99.692;2023-08-31T02:02:33;19.63;;;5.93;;
78820;SDS011;68171;13.882;99.692;2023-08-31T02:03:38;15.00;;;5.47;;
78820;SDS011;68171;13.882;99.692;2023-08-31T02:04:46;11.23;;;5.18;;
78820;SDS011;68171;13.882;99.692;2023-08-31T02:05:51;12.75;;;5.25;;
78820;SDS011;68171;13.882;99.692;2023-08-31T02:06:57;12.50;;;5.47;;
78820;SDS011;68171;13.882;99.692;2023-08-31T02:08:03;12.70;;;5.30;;
78820;SDS011;68171;13.882;99.692;2023-08-31T02:09:10;11.85;;;5.30;;
78820;SDS011;68171;13.882;99.692;2023-08-31T02:10:15;12.38;;;5.30;;
78820;SDS011;68171;13.882;99.692;2023-08-31T02:11:23;11.68;;;5.55;;
78820;SDS011;68171;13.882;99.692;2023-08-31T02:12:28;12.73;;;5.50;;
78820;SDS011;68171;13.882;99.692;2023-08-31T02:13:35;10.80;;;5.10;;
78820;SDS011;68171;13.882;99.692;2023-08-31T02:14:40;12.35;;;5.10;;
78820;SDS011;68171;13.882;99.692;2023-08-31T02:15:47;14.30;;;5.00;;
78820;SDS011;68171;13.882;99.692;2023-08-31T02:16:56;10.70;;;4.95;;
78820;SDS011;68171;13.882;99.692;2023-08-31T02:18:03;12.07;;;4.97;;
78820;SDS011;68171;13.882;99.692;2023-08-31T02:19:09;9.63;;;4.80;;
78820;SDS011;68171;13.882;99.692;2023-08-31T02:20:16;9.68;;;4.70;;
78820;SDS011;68171;13.882;99.692;2023-08-31T02:21:22;11.07;;;4.57;;
78820;SDS011;68171;13.882;99.692;2023-08-31T02:22:29;11.80;;;5.13;;
78820;SDS011;68171;13.882;99.692;2023-08-31T02:23:38;12.48;;;5.43;;
78820;SDS011;68171;13.882;99.692;2023-08-31T02:24:44;14.55;;;5.40;;
78820;SDS011;68171;13.882;99.692;2023-08-31T02:25:50;12.27;;;5.57;;
78820;SDS011;68171;13.882;99.692;2023-08-31T02:26:58;15.48;;;5.50;;
78820;SDS011;68171;13.882;99.692;2023-08-31T02:28:03;12.90;;;4.95;;
78820;SDS011;68171;13.882;99.692;2023-08-31T02:29:10;11.05;;;4.97;;
78820;SDS011;68171;13.882;99.692;2023-08-31T02:30:15;9.60;;;4.67;;
78820;SDS011;68171;13.882;99.692;2023-08-31T02:31:22;12.55;;;5.15;;
78820;SDS011;68171;13.882;99.692;2023-08-31T02:32:27;9.48;;;4.50;;
78820;SDS011;68171;13.882;99.692;2023-08-31T02:33:34;11.48;;;4.78;;
78820;SDS011;68171;13.882;99.692;2023-08-31T02:34:39;13.25;;;4.70;;
78820;SDS011;68171;13.882;99.692;2023-08-31T02:35:46;13.77;;;4.72;;
78820;SDS011;68171;13.882;99.692;2023-08-31T02:36:51;12.48;;;5.22;;
78820;SDS011;68171;13.882;99.692;2023-08-31T02:37:57;10.50;;;4.82;;
78820;SDS011;68171;13.882;99.692;2023-08-31T02:39:03;12.27;;;5.28;;
78820;SDS011;68171;13.882;99.692;2023-08-31T02:40:10;9.77;;;5.13;;
78820;SDS011;68171;13.882;99.692;2023-08-31T02:41:16;10.53;;;4.90;;
78820;SDS011;68171;13.882;99.692;2023-08-31T02:42:24;12.77;;;5.50;;
78820;SDS011;68171;13.882;99.692;2023-08-31T02:43:30;12.32;;;5.10;;
78820;SDS011;68171;13.882;99.692;2023-08-31T02:44:36;11.88;;;5.60;;
78820;SDS011;68171;13.882;99.692;2023-08-31T02:45:41;12.43;;;5.20;;
78820;SDS011;68171;13.882;99.692;2023-08-31T02:46:48;11.88;;;5.20;;
78820;SDS011;68171;13.882;99.692;2023-08-31T02:47:53;12.65;;;5.00;;
78820;SDS011;68171;13.882;99.692;2023-08-31T02:49:00;10.25;;;4.85;;
78820;SDS011;68171;13.882;99.692;2023-08-31T02:50:06;12.73;;;5.85;;
78820;SDS011;68171;13.882;99.692;2023-08-31T02:51:13;10.50;;;5.15;;
78820;SDS011;68171;13.882;99.692;2023-08-31T02:52:18;12.73;;;5.30;;
78820;SDS011;68171;13.882;99.692;2023-08-31T02:53:25;14.27;;;5.80;;
78820;SDS011;68171;13.882;99.692;2023-08-31T02:54:30;11.20;;;5.32;;
78820;SDS011;68171;13.882;99.692;2023-08-31T02:55:35;13.55;;;5.05;;
78820;SDS011;68171;13.882;99.692;2023-08-31T02:56:42;12.00;;;5.25;;
78820;SDS011;68171;13.882;99.692;2023-08-31T02:57:49;11.77;;;5.25;;
78820;SDS011;68171;13.882;99.692;2023-08-31T02:58:55;13.90;;;5.78;;
78820;SDS011;68171;13.882;99.692;2023-08-31T03:00:00;12.60;;;5.25;;
78820;SDS011;68171;13.882;99.692;2023-08-31T03:01:13;18.85;;;5.65;;
78820;SDS011;68171;13.882;99.692;2023-08-31T03:02:19;10.65;;;5.05;;
78820;SDS011;68171;13.882;99.692;2023-08-31T03:03:25;10.77;;;5.53;;
78820;SDS011;68171;13.882;99.692;2023-08-31T03:04:30;13.90;;;5.78;;
78820;SDS011;68171;13.882;99.692;2023-08-31T03:05:37;15.40;;;5.65;;
78820;SDS011;68171;13.882;99.692;2023-08-31T03:06:42;11.60;;;5.32;;
78820;SDS011;68171;13.882;99.692;2023-08-31T03:07:49;12.70;;;5.20;;
78820;SDS011;68171;13.882;99.692;2023-08-31T03:08:55;14.13;;;5.35;;
78820;SDS011;68171;13.882;99.692;2023-08-31T03:10:00;12.15;;;5.18;;
78820;SDS011;68171;13.882;99.692;2023-08-31T03:11:07;9.82;;;5.00;;
78820;SDS011;68171;13.882;99.692;2023-08-31T03:12:12;11.38;;;4.95;;
78820;SDS011;68171;13.882;99.692;2023-08-31T03:13:21;11.98;;;5.60;;
78820;SDS011;68171;13.882;99.692;2023-08-31T03:14:26;12.27;;;5.53;;
78820;SDS011;68171;13.882;99.692;2023-08-31T03:15:33;14.82;;;6.13;;
78820;SDS011;68171;13.882;99.692;2023-08-31T03:16:38;11.73;;;5.57;;
78820;SDS011;68171;13.882;99.692;2023-08-31T03:17:45;13.90;;;5.75;;
78820;SDS011;68171;13.882;99.692;2023-08-31T03:18:50;17.67;;;7.68;;
78820;SDS011;68171;13.882;99.692;2023-08-31T03:19:56;14.70;;;7.00;;
78820;SDS011;68171;13.882;99.692;2023-08-31T03:21:02;21.05;;;7.20;;
78820;SDS011;68171;13.882;99.692;2023-08-31T03:22:08;16.05;;;6.82;;
78820;SDS011;68171;13.882;99.692;2023-08-31T03:23:13;11.93;;;5.90;;
78820;SDS011;68171;13.882;99.692;2023-08-31T03:24:20;16.70;;;6.55;;
78820;SDS011;68171;13.882;99.692;2023-08-31T03:25:27;15.47;;;5.77;;
78820;SDS011;68171;13.882;99.692;2023-08-31T03:26:34;13.38;;;5.90;;
78820;SDS011;68171;13.882;99.692;2023-08-31T03:27:39;15.50;;;5.10;;
78820;SDS011;68171;13.882;99.692;2023-08-31T03:28:47;10.60;;;4.90;;
78820;SDS011;68171;13.882;99.692;2023-08-31T03:29:53;12.80;;;5.13;;
78820;SDS011;68171;13.882;99.692;2023-08-31T03:30:59;13.30;;;5.53;;
78820;SDS011;68171;13.882;99.692;2023-08-31T03:32:05;14.15;;;5.85;;
78820;SDS011;68171;13.882;99.692;2023-08-31T03:33:12;13.02;;;5.70;;
78820;SDS011;68171;13.882;99.692;2023-08-31T03:34:17;14.02;;;5.07;;
78820;SDS011;68171;13.882;99.692;2023-08-31T03:35:24;16.60;;;5.70;;
78820;SDS011;68171;13.882;99.692;2023-08-31T03:36:30;10.30;;;5.23;;
78820;SDS011;68171;13.882;99.692;2023-08-31T03:37:37;18.75;;;6.05;;
78820;SDS011;68171;13.882;99.692;2023-08-31T03:38:42;13.05;;;5.45;;
78820;SDS011;68171;13.882;99.692;2023-08-31T03:39:49;15.82;;;5.85;;
78820;SDS011;68171;13.882;99.692;2023-08-31T03:40:54;14.85;;;5.93;;
78820;SDS011;68171;13.882;99.692;2023-08-31T03:42:01;12.20;;;5.80;;
78820;SDS011;68171;13.882;99.692;2023-08-31T03:43:07;15.10;;;6.10;;
78820;SDS011;68171;13.882;99.692;2023-08-31T03:44:16;14.40;;;5.53;;
78820;SDS011;68171;13.882;99.692;2023-08-31T03:45:21;17.55;;;5.95;;
78820;SDS011;68171;13.882;99.692;2023-08-31T03:46:28;14.82;;;5.70;;
78820;SDS011;68171;13.882;99.692;2023-08-31T03:47:33;14.43;;;5.30;;
78820;SDS011;68171;13.882;99.692;2023-08-31T03:48:39;14.50;;;5.13;;
78820;SDS011;68171;13.882;99.692;2023-08-31T03:49:46;12.73;;;5.80;;
78820;SDS011;68171;13.882;99.692;2023-08-31T03:50:51;13.30;;;5.10;;
78820;SDS011;68171;13.882;99.692;2023-08-31T03:51:58;13.65;;;6.20;;
78820;SDS011;68171;13.882;99.692;2023-08-31T03:53:03;14.48;;;5.82;;
78820;SDS011;68171;13.882;99.692;2023-08-31T03:54:10;16.23;;;6.20;;
78820;SDS011;68171;13.882;99.692;2023-08-31T03:55:16;13.73;;;6.03;;
78820;SDS011;68171;13.882;99.692;2023-08-31T03:56:23;15.80;;;6.50;;
78820;SDS011;68171;13.882;99.692;2023-08-31T03:57:28;12.57;;;5.95;;
78820;SDS011;68171;13.882;99.692;2023-08-31T03:58:35;15.53;;;6.57;;
78820;SDS011;68171;13.882;99.692;2023-08-31T03:59:42;15.68;;;5.57;;
78820;SDS011;68171;13.882;99.692;2023-08-31T04:00:49;14.02;;;5.82;;
78820;SDS011;68171;13.882;99.692;2023-08-31T04:01:54;14.02;;;5.72;;
78820;SDS011;68171;13.882;99.692;2023-08-31T04:03:01;14.95;;;6.32;;
78820;SDS011;68171;13.882;99.692;2023-08-31T04:04:07;15.02;;;5.93;;
78820;SDS011;68171;13.882;99.692;2023-08-31T04:05:14;11.38;;;6.07;;
78820;SDS011;68171;13.882;99.692;2023-08-31T04:06:19;19.67;;;6.75;;
78820;SDS011;68171;13.882;99.692;2023-08-31T04:07:26;14.48;;;6.32;;
78820;SDS011;68171;13.882;99.692;2023-08-31T04:08:31;11.82;;;6.15;;
78820;SDS011;68171;13.882;99.692;2023-08-31T04:09:38;15.10;;;6.00;;
78820;SDS011;68171;13.882;99.692;2023-08-31T04:10:43;13.48;;;6.00;;
78820;SDS011;68171;13.882;99.692;2023-08-31T04:11:50;17.58;;;6.30;;
78820;SDS011;68171;13.882;99.692;2023-08-31T04:12:55;11.63;;;5.60;;
78820;SDS011;68171;13.882;99.692;2023-08-31T04:14:02;18.25;;;6.75;;
78820;SDS011;68171;13.882;99.692;2023-08-31T04:15:09;15.82;;;6.10;;
78820;SDS011;68171;13.882;99.692;2023-08-31T04:16:17;14.32;;;5.85;;
78820;SDS011;68171;13.882;99.692;2023-08-31T04:17:22;16.75;;;6.20;;
78820;SDS011;68171;13.882;99.692;2023-08-31T04:18:29;15.38;;;6.00;;
78820;SDS011;68171;13.882;99.692;2023-08-31T04:19:34;14.52;;;6.50;;
78820;SDS011;68171;13.882;99.692;2023-08-31T04:20:47;17.27;;;6.40;;
78820;SDS011;68171;13.882;99.692;2023-08-31T04:21:54;11.13;;;5.73;;
78820;SDS011;68171;13.882;99.692;2023-08-31T04:23:01;15.70;;;6.10;;
78820;SDS011;68171;13.882;99.692;2023-08-31T04:24:07;15.73;;;6.20;;
78820;SDS011;68171;13.882;99.692;2023-08-31T04:25:13;13.40;;;6.45;;
78820;SDS011;68171;13.882;99.692;2023-08-31T04:26:19;14.50;;;6.15;;
78820;SDS011;68171;13.882;99.692;2023-08-31T04:27:27;13.57;;;6.15;;
78820;SDS011;68171;13.882;99.692;2023-08-31T04:28:34;20.08;;;7.10;;
78820;SDS011;68171;13.882;99.692;2023-08-31T04:29:41;17.02;;;6.70;;
78820;SDS011;68171;13.882;99.692;2023-08-31T04:30:48;17.48;;;6.20;;
78820;SDS011;68171;13.882;99.692;2023-08-31T04:31:54;17.73;;;6.10;;
78820;SDS011;68171;13.882;99.692;2023-08-31T04:33:00;14.10;;;6.50;;
78820;SDS011;68171;13.882;99.692;2023-08-31T04:34:08;22.80;;;6.45;;
78820;SDS011;68171;13.882;99.692;2023-08-31T04:35:13;21.05;;;6.20;;
78820;SDS011;68171;13.882;99.692;2023-08-31T04:36:20;15.75;;;6.13;;
78820;SDS011;68171;13.882;99.692;2023-08-31T04:37:26;15.25;;;6.25;;
78820;SDS011;68171;13.882;99.692;2023-08-31T04:38:33;19.48;;;6.07;;
78820;SDS011;68171;13.882;99.692;2023-08-31T04:39:38;19.45;;;6.78;;
78820;SDS011;68171;13.882;99.692;2023-08-31T04:40:45;15.23;;;6.53;;
78820;SDS011;68171;13.882;99.692;2023-08-31T04:41:50;18.38;;;6.68;;
78820;SDS011;68171;13.882;99.692;2023-08-31T04:42:57;19.00;;;6.43;;
78820;SDS011;68171;13.882;99.692;2023-08-31T04:44:03;19.95;;;7.03;;
78820;SDS011;68171;13.882;99.692;2023-08-31T04:45:10;18.88;;;6.68;;
78820;SDS011;68171;13.882;99.692;2023-08-31T04:46:17;20.83;;;7.13;;
78820;SDS011;68171;13.882;99.692;2023-08-31T04:47:24;19.88;;;6.60;;
78820;SDS011;68171;13.882;99.692;2023-08-31T04:48:29;17.10;;;6.55;;
78820;SDS011;68171;13.882;99.692;2023-08-31T04:49:36;18.98;;;6.50;;
78820;SDS011;68171;13.882;99.692;2023-08-31T04:50:41;19.35;;;7.25;;
78820;SDS011;68171;13.882;99.692;2023-08-31T04:51:48;21.00;;;7.25;;
78820;SDS011;68171;13.882;99.692;2023-08-31T04:52:53;18.10;;;7.10;;
78820;SDS011;68171;13.882;99.692;2023-08-31T04:53:59;16.83;;;6.67;;
78820;SDS011;68171;13.882;99.692;2023-08-31T04:55:06;21.33;;;6.77;;
78820;SDS011;68171;13.882;99.692;2023-08-31T04:56:14;16.58;;;6.35;;
78820;SDS011;68171;13.882;99.692;2023-08-31T04:57:19;18.45;;;6.57;;
78820;SDS011;68171;13.882;99.692;2023-08-31T04:58:27;18.35;;;6.78;;
78820;SDS011;68171;13.882;99.692;2023-08-31T04:59:32;16.45;;;6.18;;
78820;SDS011;68171;13.882;99.692;2023-08-31T05:00:39;18.77;;;6.40;;
78820;SDS011;68171;13.882;99.692;2023-08-31T05:01:46;23.27;;;7.22;;
78820;SDS011;68171;13.882;99.692;2023-08-31T05:02:52;19.63;;;6.72;;
78820;SDS011;68171;13.882;99.692;2023-08-31T05:03:58;21.65;;;6.93;;
78820;SDS011;68171;13.882;99.692;2023-08-31T05:05:05;17.80;;;6.83;;
78820;SDS011;68171;13.882;99.692;2023-08-31T05:06:11;19.00;;;6.80;;
78820;SDS011;68171;13.882;99.692;2023-08-31T05:07:17;18.73;;;6.53;;
78820;SDS011;68171;13.882;99.692;2023-08-31T05:08:23;17.60;;;6.45;;
78820;SDS011;68171;13.882;99.692;2023-08-31T05:09:29;16.05;;;7.10;;
78820;SDS011;68171;13.882;99.692;2023-08-31T05:10:38;19.67;;;6.75;;
78820;SDS011;68171;13.882;99.692;2023-08-31T05:11:44;19.98;;;6.60;;
78820;SDS011;68171;13.882;99.692;2023-08-31T05:12:50;16.55;;;6.55;;
78820;SDS011;68171;13.882;99.692;2023-08-31T05:13:57;19.23;;;6.85;;
78820;SDS011;68171;13.882;99.692;2023-08-31T05:15:02;15.00;;;6.93;;
78820;SDS011;68171;13.882;99.692;2023-08-31T05:16:09;15.97;;;6.17;;
78820;SDS011;68171;13.882;99.692;2023-08-31T05:17:16;19.17;;;6.80;;
78820;SDS011;68171;13.882;99.692;2023-08-31T05:18:23;15.68;;;6.80;;
78820;SDS011;68171;13.882;99.692;2023-08-31T05:19:28;23.67;;;7.47;;
78820;SDS011;68171;13.882;99.692;2023-08-31T05:20:35;21.65;;;6.28;;
78820;SDS011;68171;13.882;99.692;2023-08-31T05:21:40;19.33;;;6.25;;
78820;SDS011;68171;13.882;99.692;2023-08-31T05:22:47;16.20;;;6.22;;
78820;SDS011;68171;13.882;99.692;2023-08-31T05:23:52;17.85;;;6.35;;
78820;SDS011;68171;13.882;99.692;2023-08-31T05:24:59;15.30;;;6.32;;
78820;SDS011;68171;13.882;99.692;2023-08-31T05:26:04;16.48;;;6.55;;
78820;SDS011;68171;13.882;99.692;2023-08-31T05:27:10;18.47;;;6.80;;
78820;SDS011;68171;13.882;99.692;2023-08-31T05:28:16;16.90;;;6.30;;
78820;SDS011;68171;13.882;99.692;2023-08-31T05:29:22;23.00;;;6.43;;
78820;SDS011;68171;13.882;99.692;2023-08-31T05:30:28;16.48;;;6.57;;
78820;SDS011;68171;13.882;99.692;2023-08-31T05:31:34;20.75;;;7.25;;
78820;SDS011;68171;13.882;99.692;2023-08-31T05:32:42;21.60;;;7.30;;
78820;SDS011;68171;13.882;99.692;2023-08-31T05:33:49;17.67;;;6.70;;
78820;SDS011;68171;13.882;99.692;2023-08-31T05:34:54;18.77;;;6.53;;
78820;SDS011;68171;13.882;99.692;2023-08-31T05:36:02;17.48;;;6.13;;
78820;SDS011;68171;13.882;99.692;2023-08-31T05:37:07;16.70;;;6.13;;
78820;SDS011;68171;13.882;99.692;2023-08-31T05:38:14;15.67;;;6.90;;
78820;SDS011;68171;13.882;99.692;2023-08-31T05:39:19;18.07;;;6.10;;
78820;SDS011;68171;13.882;99.692;2023-08-31T05:40:26;17.10;;;6.28;;
78820;SDS011;68171;13.882;99.692;2023-08-31T05:41:31;17.52;;;6.45;;
78820;SDS011;68171;13.882;99.692;2023-08-31T05:42:39;21.95;;;6.80;;
78820;SDS011;68171;13.882;99.692;2023-08-31T05:43:44;20.88;;;6.90;;
78820;SDS011;68171;13.882;99.692;2023-08-31T05:44:51;15.15;;;6.40;;
78820;SDS011;68171;13.882;99.692;2023-08-31T05:45:56;15.40;;;6.53;;
78820;SDS011;68171;13.882;99.692;2023-08-31T05:47:03;17.00;;;6.47;;
78820;SDS011;68171;13.882;99.692;2023-08-31T05:48:10;17.23;;;6.55;;
78820;SDS011;68171;13.882;99.692;2023-08-31T05:49:17;22.40;;;6.50;;
78820;SDS011;68171;13.882;99.692;2023-08-31T05:50:22;20.10;;;6.27;;
78820;SDS011;68171;13.882;99.692;2023-08-31T05:51:29;16.48;;;5.90;;
78820;SDS011;68171;13.882;99.692;2023-08-31T05:52:34;20.75;;;6.72;;
78820;SDS011;68171;13.882;99.692;2023-08-31T05:53:41;20.58;;;6.47;;
78820;SDS011;68171;13.882;99.692;2023-08-31T05:54:46;18.40;;;6.65;;
78820;SDS011;68171;13.882;99.692;2023-08-31T05:55:54;19.30;;;6.43;;
78820;SDS011;68171;13.882;99.692;2023-08-31T05:57:07;19.42;;;6.90;;
78820;SDS011;68171;13.882;99.692;2023-08-31T05:58:14;19.15;;;6.25;;
78820;SDS011;68171;13.882;99.692;2023-08-31T05:59:19;17.60;;;6.20;;
78820;SDS011;68171;13.882;99.692;2023-08-31T06:00:26;16.90;;;6.43;;
78820;SDS011;68171;13.882;99.692;2023-08-31T06:01:31;19.13;;;6.70;;
78820;SDS011;68171;13.882;99.692;2023-08-31T06:02:38;16.85;;;6.72;;
78820;SDS011;68171;13.882;99.692;2023-08-31T06:03:45;18.55;;;6.60;;
78820;SDS011;68171;13.882;99.692;2023-08-31T06:04:52;18.35;;;6.47;;
78820;SDS011;68171;13.882;99.692;2023-08-31T06:05:57;15.80;;;6.57;;
78820;SDS011;68171;13.882;99.692;2023-08-31T06:07:04;16.23;;;6.07;;
78820;SDS011;68171;13.882;99.692;2023-08-31T06:08:10;19.95;;;6.65;;
78820;SDS011;68171;13.882;99.692;2023-08-31T06:09:16;18.83;;;6.95;;
78820;SDS011;68171;13.882;99.692;2023-08-31T06:10:22;15.88;;;6.40;;
78820;SDS011;68171;13.882;99.692;2023-08-31T06:11:28;18.90;;;6.53;;
78820;SDS011;68171;13.882;99.692;2023-08-31T06:12:34;13.67;;;6.10;;
78820;SDS011;68171;13.882;99.692;2023-08-31T06:13:40;19.25;;;6.55;;
78820;SDS011;68171;13.882;99.692;2023-08-31T06:14:46;20.98;;;6.82;;
78820;SDS011;68171;13.882;99.692;2023-08-31T06:15:53;16.27;;;7.15;;
78820;SDS011;68171;13.882;99.692;2023-08-31T06:17:01;18.55;;;7.13;;
78820;SDS011;68171;13.882;99.692;2023-08-31T06:18:08;20.23;;;6.80;;
78820;SDS011;68171;13.882;99.692;2023-08-31T06:19:15;29.02;;;7.10;;
78820;SDS011;68171;13.882;99.692;2023-08-31T06:20:21;19.67;;;6.78;;
78820;SDS011;68171;13.882;99.692;2023-08-31T06:21:27;17.48;;;6.45;;
78820;SDS011;68171;13.882;99.692;2023-08-31T06:22:33;18.80;;;6.83;;
78820;SDS011;68171;13.882;99.692;2023-08-31T06:23:39;22.70;;;6.83;;
78820;SDS011;68171;13.882;99.692;2023-08-31T06:24:46;17.67;;;6.53;;
78820;SDS011;68171;13.882;99.692;2023-08-31T06:25:51;20.95;;;6.93;;
78820;SDS011;68171;13.882;99.692;2023-08-31T06:26:58;22.55;;;7.22;;
78820;SDS011;68171;13.882;99.692;2023-08-31T06:28:03;18.98;;;6.55;;
78820;SDS011;68171;13.882;99.692;2023-08-31T06:29:12;19.90;;;6.72;;
78820;SDS011;68171;13.882;99.692;2023-08-31T06:30:17;21.58;;;7.32;;